sensor_id;sensor_type;location;lat;lon;timestamp;temperature;humidity
20672;DHT22;10495;50.922;4.760;2022-12-15T00:00:41;-4.40;77.80
20672;DHT22;10495;50.922;4.760;2022-12-15T00:03:25;-4.40;77.70
20672;DHT22;10495;50.922;4.760;2022-12-15T00:06:09;-4.40;78.00
20672;DHT22;10495;50.922;4.760;2022-12-15T00:08:53;-4.50;77.70
20672;DHT22;10495;50.922;4.760;2022-12-15T00:11:37;-4.50;77.40
20672;DHT22;10495;50.922;4.760;2022-12-15T00:14:21;-4.50;77.70
20672;DHT22;10495;50.922;4.760;2022-12-15T00:17:05;-4.50;77.50
20672;DHT22;10495;50.922;4.760;2022-12-15T00:19:49;-4.40;77.20
20672;DHT22;10495;50.922;4.760;2022-12-15T00:22:33;-4.40;77.30
20672;DHT22;10495;50.922;4.760;2022-12-15T00:25:17;-4.30;77.40
20672;DHT22;10495;50.922;4.760;2022-12-15T00:28:01;-4.30;77.10
20672;DHT22;10495;50.922;4.760;2022-12-15T00:30:45;-4.40;77.50
20672;DHT22;10495;50.922;4.760;2022-12-15T00:33:29;-4.40;78.40
20672;DHT22;10495;50.922;4.760;2022-12-15T00:36:13;-4.40;78.20
20672;DHT22;10495;50.922;4.760;2022-12-15T00:38:57;-4.40;78.60
20672;DHT22;10495;50.922;4.760;2022-12-15T00:41:22;-4.40;78.40
20672;DHT22;10495;50.922;4.760;2022-12-15T00:43:48;-4.40;79.00
20672;DHT22;10495;50.922;4.760;2022-12-15T00:46:14;-4.40;78.50
20672;DHT22;10495;50.922;4.760;2022-12-15T00:48:58;-4.40;78.30
20672;DHT22;10495;50.922;4.760;2022-12-15T00:51:24;-4.40;77.60
20672;DHT22;10495;50.922;4.760;2022-12-15T00:54:09;-4.40;77.60
20672;DHT22;10495;50.922;4.760;2022-12-15T00:56:53;-4.40;78.20
20672;DHT22;10495;50.922;4.760;2022-12-15T00:59:37;-4.40;77.40
20672;DHT22;10495;50.922;4.760;2022-12-15T01:02:21;-4.60;77.10
20672;DHT22;10495;50.922;4.760;2022-12-15T01:05:05;-4.60;77.30
20672;DHT22;10495;50.922;4.760;2022-12-15T01:07:49;-4.60;77.60
20672;DHT22;10495;50.922;4.760;2022-12-15T01:10:34;-4.60;77.50
20672;DHT22;10495;50.922;4.760;2022-12-15T01:13:18;-4.60;77.50
20672;DHT22;10495;50.922;4.760;2022-12-15T01:16:07;-4.50;77.70
20672;DHT22;10495;50.922;4.760;2022-12-15T01:18:52;-4.50;77.50
20672;DHT22;10495;50.922;4.760;2022-12-15T01:21:36;-4.40;77.60
20672;DHT22;10495;50.922;4.760;2022-12-15T01:24:01;-4.50;78.00
20672;DHT22;10495;50.922;4.760;2022-12-15T01:26:27;-4.50;77.90
20672;DHT22;10495;50.922;4.760;2022-12-15T01:28:53;-4.60;76.90
20672;DHT22;10495;50.922;4.760;2022-12-15T01:31:18;-4.60;76.90
20672;DHT22;10495;50.922;4.760;2022-12-15T01:33:44;-4.70;77.00
20672;DHT22;10495;50.922;4.760;2022-12-15T01:36:10;-4.70;77.60
20672;DHT22;10495;50.922;4.760;2022-12-15T01:38:35;-4.70;77.60
20672;DHT22;10495;50.922;4.760;2022-12-15T01:41:05;-4.70;77.50
20672;DHT22;10495;50.922;4.760;2022-12-15T01:43:34;-4.60;77.60
20672;DHT22;10495;50.922;4.760;2022-12-15T01:46:08;-4.70;77.30
20672;DHT22;10495;50.922;4.760;2022-12-15T01:48:39;-4.60;77.50
20672;DHT22;10495;50.922;4.760;2022-12-15T01:51:27;-4.70;77.70
20672;DHT22;10495;50.922;4.760;2022-12-15T01:54:09;-4.60;78.00
20672;DHT22;10495;50.922;4.760;2022-12-15T01:56:42;-4.60;77.70
20672;DHT22;10495;50.922;4.760;2022-12-15T01:59:11;-4.60;77.40
20672;DHT22;10495;50.922;4.760;2022-12-15T02:01:39;-4.60;77.10
20672;DHT22;10495;50.922;4.760;2022-12-15T02:04:05;-4.70;77.00
20672;DHT22;10495;50.922;4.760;2022-12-15T02:06:31;-4.70;76.80
20672;DHT22;10495;50.922;4.760;2022-12-15T02:08:58;-4.70;76.60
20672;DHT22;10495;50.922;4.760;2022-12-15T02:11:37;-4.80;76.90
20672;DHT22;10495;50.922;4.760;2022-12-15T02:14:09;-4.70;77.20
20672;DHT22;10495;50.922;4.760;2022-12-15T02:16:45;-4.80;76.80
20672;DHT22;10495;50.922;4.760;2022-12-15T02:22:01;-4.70;77.00
20672;DHT22;10495;50.922;4.760;2022-12-15T02:24:49;-4.80;77.00
20672;DHT22;10495;50.922;4.760;2022-12-15T02:30:20;-5.00;76.40
20672;DHT22;10495;50.922;4.760;2022-12-15T02:35:44;-5.10;77.00
20672;DHT22;10495;50.922;4.760;2022-12-15T02:38:12;-5.10;77.00
20672;DHT22;10495;50.922;4.760;2022-12-15T02:40:38;-5.10;77.10
20672;DHT22;10495;50.922;4.760;2022-12-15T02:43:05;-5.20;77.70
20672;DHT22;10495;50.922;4.760;2022-12-15T02:45:58;-5.10;77.90
20672;DHT22;10495;50.922;4.760;2022-12-15T02:48:37;-5.00;77.80
20672;DHT22;10495;50.922;4.760;2022-12-15T02:56:43;-4.90;77.50
20672;DHT22;10495;50.922;4.760;2022-12-15T02:59:24;-5.00;77.50
20672;DHT22;10495;50.922;4.760;2022-12-15T03:02:00;-5.00;77.50
20672;DHT22;10495;50.922;4.760;2022-12-15T03:04:27;-4.90;77.80
20672;DHT22;10495;50.922;4.760;2022-12-15T03:06:57;-4.90;77.50
20672;DHT22;10495;50.922;4.760;2022-12-15T03:09:23;-4.90;77.50
20672;DHT22;10495;50.922;4.760;2022-12-15T03:11:49;-4.90;77.30
20672;DHT22;10495;50.922;4.760;2022-12-15T03:14:14;-4.90;77.60
20672;DHT22;10495;50.922;4.760;2022-12-15T03:16:40;-4.90;77.70
20672;DHT22;10495;50.922;4.760;2022-12-15T03:19:06;-4.90;77.60
20672;DHT22;10495;50.922;4.760;2022-12-15T03:21:31;-5.00;77.50
20672;DHT22;10495;50.922;4.760;2022-12-15T03:23:57;-4.90;78.00
20672;DHT22;10495;50.922;4.760;2022-12-15T03:26:22;-4.90;78.10
20672;DHT22;10495;50.922;4.760;2022-12-15T03:28:48;-4.80;77.90
20672;DHT22;10495;50.922;4.760;2022-12-15T03:31:13;-4.90;77.50
20672;DHT22;10495;50.922;4.760;2022-12-15T03:33:39;-4.90;77.60
20672;DHT22;10495;50.922;4.760;2022-12-15T03:36:05;-4.90;77.60
20672;DHT22;10495;50.922;4.760;2022-12-15T03:38:31;-4.90;77.60
20672;DHT22;10495;50.922;4.760;2022-12-15T03:40:56;-4.90;77.50
20672;DHT22;10495;50.922;4.760;2022-12-15T03:43:22;-4.90;77.60
20672;DHT22;10495;50.922;4.760;2022-12-15T03:45:48;-4.90;77.30
20672;DHT22;10495;50.922;4.760;2022-12-15T03:48:13;-5.00;77.40
20672;DHT22;10495;50.922;4.760;2022-12-15T03:50:39;-5.00;77.30
20672;DHT22;10495;50.922;4.760;2022-12-15T03:53:05;-5.00;77.10
20672;DHT22;10495;50.922;4.760;2022-12-15T03:55:31;-5.00;77.20
20672;DHT22;10495;50.922;4.760;2022-12-15T03:57:57;-5.00;77.30
20672;DHT22;10495;50.922;4.760;2022-12-15T04:00:24;-5.00;77.30
20672;DHT22;10495;50.922;4.760;2022-12-15T04:02:50;-5.00;77.30
20672;DHT22;10495;50.922;4.760;2022-12-15T04:05:24;-5.00;77.00
20672;DHT22;10495;50.922;4.760;2022-12-15T04:07:50;-5.00;77.50
20672;DHT22;10495;50.922;4.760;2022-12-15T04:10:16;-5.10;77.60
20672;DHT22;10495;50.922;4.760;2022-12-15T04:12:42;-5.10;77.10
20672;DHT22;10495;50.922;4.760;2022-12-15T04:15:09;-5.00;76.70
20672;DHT22;10495;50.922;4.760;2022-12-15T04:17:35;-5.10;77.10
20672;DHT22;10495;50.922;4.760;2022-12-15T04:20:01;-5.10;77.40
20672;DHT22;10495;50.922;4.760;2022-12-15T04:25:04;-5.10;77.20
20672;DHT22;10495;50.922;4.760;2022-12-15T04:27:48;-5.00;76.90
20672;DHT22;10495;50.922;4.760;2022-12-15T04:30:33;-5.10;76.90
20672;DHT22;10495;50.922;4.760;2022-12-15T04:33:17;-5.10;77.40
20672;DHT22;10495;50.922;4.760;2022-12-15T04:36:02;-5.10;77.60
20672;DHT22;10495;50.922;4.760;2022-12-15T04:38:47;-5.10;77.10
20672;DHT22;10495;50.922;4.760;2022-12-15T04:41:31;-5.10;76.90
20672;DHT22;10495;50.922;4.760;2022-12-15T04:44:16;-5.20;77.20
20672;DHT22;10495;50.922;4.760;2022-12-15T04:47:00;-5.20;77.60
20672;DHT22;10495;50.922;4.760;2022-12-15T04:49:44;-5.20;77.50
20672;DHT22;10495;50.922;4.760;2022-12-15T04:52:28;-5.20;77.70
20672;DHT22;10495;50.922;4.760;2022-12-15T04:55:12;-5.10;77.80
20672;DHT22;10495;50.922;4.760;2022-12-15T04:57:56;-5.10;77.80
20672;DHT22;10495;50.922;4.760;2022-12-15T05:00:40;-5.20;77.30
20672;DHT22;10495;50.922;4.760;2022-12-15T05:03:24;-5.10;77.10
20672;DHT22;10495;50.922;4.760;2022-12-15T05:06:08;-5.10;77.30
20672;DHT22;10495;50.922;4.760;2022-12-15T05:08:52;-5.20;77.60
20672;DHT22;10495;50.922;4.760;2022-12-15T05:11:36;-5.20;77.70
20672;DHT22;10495;50.922;4.760;2022-12-15T05:14:20;-5.20;77.70
20672;DHT22;10495;50.922;4.760;2022-12-15T05:17:04;-5.10;77.90
20672;DHT22;10495;50.922;4.760;2022-12-15T05:19:48;-5.10;77.60
20672;DHT22;10495;50.922;4.760;2022-12-15T05:22:33;-5.10;77.60
20672;DHT22;10495;50.922;4.760;2022-12-15T05:25:17;-5.20;77.50
20672;DHT22;10495;50.922;4.760;2022-12-15T05:28:05;-5.20;77.50
20672;DHT22;10495;50.922;4.760;2022-12-15T05:30:49;-5.20;77.50
20672;DHT22;10495;50.922;4.760;2022-12-15T05:33:33;-5.20;77.10
20672;DHT22;10495;50.922;4.760;2022-12-15T05:35:59;-5.30;77.20
20672;DHT22;10495;50.922;4.760;2022-12-15T05:38:24;-5.20;77.40
20672;DHT22;10495;50.922;4.760;2022-12-15T05:40:50;-5.30;77.20
20672;DHT22;10495;50.922;4.760;2022-12-15T05:43:16;-5.20;77.30
20672;DHT22;10495;50.922;4.760;2022-12-15T05:45:42;-5.20;77.20
20672;DHT22;10495;50.922;4.760;2022-12-15T05:48:07;-5.20;77.20
20672;DHT22;10495;50.922;4.760;2022-12-15T05:50:33;-5.30;77.00
20672;DHT22;10495;50.922;4.760;2022-12-15T05:52:59;-5.20;77.00
20672;DHT22;10495;50.922;4.760;2022-12-15T05:55:24;-5.20;76.80
20672;DHT22;10495;50.922;4.760;2022-12-15T05:57:51;-5.20;76.60
20672;DHT22;10495;50.922;4.760;2022-12-15T06:00:17;-5.20;76.50
20672;DHT22;10495;50.922;4.760;2022-12-15T06:02:43;-5.30;76.70
20672;DHT22;10495;50.922;4.760;2022-12-15T06:05:08;-5.30;77.10
20672;DHT22;10495;50.922;4.760;2022-12-15T06:07:34;-5.30;76.70
20672;DHT22;10495;50.922;4.760;2022-12-15T06:10:00;-5.30;76.70
20672;DHT22;10495;50.922;4.760;2022-12-15T06:12:27;-5.20;76.60
20672;DHT22;10495;50.922;4.760;2022-12-15T06:14:53;-5.20;76.90
20672;DHT22;10495;50.922;4.760;2022-12-15T06:17:18;-5.20;77.20
20672;DHT22;10495;50.922;4.760;2022-12-15T06:19:44;-5.20;77.20
20672;DHT22;10495;50.922;4.760;2022-12-15T06:22:09;-5.20;77.40
20672;DHT22;10495;50.922;4.760;2022-12-15T06:24:35;-5.20;77.90
20672;DHT22;10495;50.922;4.760;2022-12-15T06:27:00;-5.20;78.00
20672;DHT22;10495;50.922;4.760;2022-12-15T06:29:26;-5.10;77.70
20672;DHT22;10495;50.922;4.760;2022-12-15T06:31:51;-5.10;77.90
20672;DHT22;10495;50.922;4.760;2022-12-15T06:34:17;-5.10;77.80
20672;DHT22;10495;50.922;4.760;2022-12-15T06:36:43;-5.10;77.80
20672;DHT22;10495;50.922;4.760;2022-12-15T06:39:11;-5.10;78.10
20672;DHT22;10495;50.922;4.760;2022-12-15T06:41:37;-5.10;78.00
20672;DHT22;10495;50.922;4.760;2022-12-15T06:44:04;-5.10;78.30
20672;DHT22;10495;50.922;4.760;2022-12-15T06:46:30;-5.10;78.20
20672;DHT22;10495;50.922;4.760;2022-12-15T06:48:57;-5.10;77.70
20672;DHT22;10495;50.922;4.760;2022-12-15T06:51:23;-5.10;77.30
20672;DHT22;10495;50.922;4.760;2022-12-15T06:53:49;-5.10;77.30
20672;DHT22;10495;50.922;4.760;2022-12-15T06:56:32;-5.10;77.00
20672;DHT22;10495;50.922;4.760;2022-12-15T06:59:03;-5.10;76.90
20672;DHT22;10495;50.922;4.760;2022-12-15T07:01:30;-5.10;76.80
20672;DHT22;10495;50.922;4.760;2022-12-15T07:03:56;-5.20;77.00
20672;DHT22;10495;50.922;4.760;2022-12-15T07:06:24;-5.20;77.30
20672;DHT22;10495;50.922;4.760;2022-12-15T07:08:52;-5.30;77.90
20672;DHT22;10495;50.922;4.760;2022-12-15T07:11:19;-5.30;78.20
20672;DHT22;10495;50.922;4.760;2022-12-15T07:13:49;-5.20;78.30
20672;DHT22;10495;50.922;4.760;2022-12-15T07:16:15;-5.20;78.10
20672;DHT22;10495;50.922;4.760;2022-12-15T07:18:41;-5.20;78.20
20672;DHT22;10495;50.922;4.760;2022-12-15T07:21:08;-5.10;78.30
20672;DHT22;10495;50.922;4.760;2022-12-15T07:23:34;-5.20;78.30
20672;DHT22;10495;50.922;4.760;2022-12-15T07:26:03;-5.10;78.00
20672;DHT22;10495;50.922;4.760;2022-12-15T07:28:29;-5.10;78.00
20672;DHT22;10495;50.922;4.760;2022-12-15T07:30:54;-5.10;77.80
20672;DHT22;10495;50.922;4.760;2022-12-15T07:33:20;-5.10;77.60
20672;DHT22;10495;50.922;4.760;2022-12-15T07:35:53;-5.10;77.30
20672;DHT22;10495;50.922;4.760;2022-12-15T07:38:19;-5.10;77.20
20672;DHT22;10495;50.922;4.760;2022-12-15T07:40:44;-5.00;77.40
20672;DHT22;10495;50.922;4.760;2022-12-15T07:43:10;-5.00;77.50
20672;DHT22;10495;50.922;4.760;2022-12-15T07:45:35;-5.00;77.70
20672;DHT22;10495;50.922;4.760;2022-12-15T07:48:01;-4.90;77.70
20672;DHT22;10495;50.922;4.760;2022-12-15T07:50:27;-5.00;77.60
20672;DHT22;10495;50.922;4.760;2022-12-15T07:52:53;-5.00;78.20
20672;DHT22;10495;50.922;4.760;2022-12-15T07:55:19;-5.00;78.10
20672;DHT22;10495;50.922;4.760;2022-12-15T07:57:46;-4.90;78.00
20672;DHT22;10495;50.922;4.760;2022-12-15T08:00:13;-4.90;77.90
20672;DHT22;10495;50.922;4.760;2022-12-15T08:02:42;-4.90;77.60
20672;DHT22;10495;50.922;4.760;2022-12-15T08:05:08;-4.90;77.40
20672;DHT22;10495;50.922;4.760;2022-12-15T08:07:34;-4.90;77.70
20672;DHT22;10495;50.922;4.760;2022-12-15T08:10:00;-4.90;77.70
20672;DHT22;10495;50.922;4.760;2022-12-15T08:12:26;-4.90;77.60
20672;DHT22;10495;50.922;4.760;2022-12-15T08:14:52;-4.90;77.80
20672;DHT22;10495;50.922;4.760;2022-12-15T08:17:18;-4.80;78.00
20672;DHT22;10495;50.922;4.760;2022-12-15T08:19:44;-4.80;78.20
20672;DHT22;10495;50.922;4.760;2022-12-15T08:22:09;-4.70;78.10
20672;DHT22;10495;50.922;4.760;2022-12-15T08:24:36;-4.70;78.30
20672;DHT22;10495;50.922;4.760;2022-12-15T08:27:02;-4.70;78.90
20672;DHT22;10495;50.922;4.760;2022-12-15T08:29:28;-4.60;79.00
20672;DHT22;10495;50.922;4.760;2022-12-15T08:31:54;-4.50;79.10
20672;DHT22;10495;50.922;4.760;2022-12-15T08:34:20;-4.40;79.00
20672;DHT22;10495;50.922;4.760;2022-12-15T08:36:45;-4.30;78.60
20672;DHT22;10495;50.922;4.760;2022-12-15T08:39:11;-4.10;78.50
20672;DHT22;10495;50.922;4.760;2022-12-15T08:41:36;-4.00;78.20
20672;DHT22;10495;50.922;4.760;2022-12-15T08:44:02;-4.00;77.60
20672;DHT22;10495;50.922;4.760;2022-12-15T08:46:32;-3.80;77.50
20672;DHT22;10495;50.922;4.760;2022-12-15T08:48:59;-3.80;76.30
20672;DHT22;10495;50.922;4.760;2022-12-15T08:51:28;-3.80;76.20
20672;DHT22;10495;50.922;4.760;2022-12-15T08:53:54;-3.70;76.90
20672;DHT22;10495;50.922;4.760;2022-12-15T08:56:21;-3.50;76.80
20672;DHT22;10495;50.922;4.760;2022-12-15T08:58:48;-3.40;77.30
20672;DHT22;10495;50.922;4.760;2022-12-15T09:01:17;-3.40;77.90
20672;DHT22;10495;50.922;4.760;2022-12-15T09:03:43;-3.30;77.80
20672;DHT22;10495;50.922;4.760;2022-12-15T09:06:20;-3.10;77.80
20672;DHT22;10495;50.922;4.760;2022-12-15T09:08:47;-3.00;77.90
20672;DHT22;10495;50.922;4.760;2022-12-15T09:11:12;-2.90;78.60
20672;DHT22;10495;50.922;4.760;2022-12-15T09:13:38;-2.60;78.00
20672;DHT22;10495;50.922;4.760;2022-12-15T09:16:07;-2.40;77.90
20672;DHT22;10495;50.922;4.760;2022-12-15T09:18:33;-2.10;77.40
20672;DHT22;10495;50.922;4.760;2022-12-15T09:21:04;-1.90;77.20
20672;DHT22;10495;50.922;4.760;2022-12-15T09:23:30;-1.70;77.10
20672;DHT22;10495;50.922;4.760;2022-12-15T09:26:04;-1.50;76.60
20672;DHT22;10495;50.922;4.760;2022-12-15T09:28:30;-1.40;76.10
20672;DHT22;10495;50.922;4.760;2022-12-15T09:31:14;-1.60;76.00
20672;DHT22;10495;50.922;4.760;2022-12-15T09:33:40;-1.60;76.50
20672;DHT22;10495;50.922;4.760;2022-12-15T09:36:07;-1.70;77.10
20672;DHT22;10495;50.922;4.760;2022-12-15T09:38:34;-1.70;77.60
20672;DHT22;10495;50.922;4.760;2022-12-15T09:43:53;-1.70;78.20
20672;DHT22;10495;50.922;4.760;2022-12-15T09:48:53;-1.70;78.30
20672;DHT22;10495;50.922;4.760;2022-12-15T09:51:31;-1.60;78.50
20672;DHT22;10495;50.922;4.760;2022-12-15T09:53:59;-1.60;78.50
20672;DHT22;10495;50.922;4.760;2022-12-15T09:56:45;-1.50;78.90
20672;DHT22;10495;50.922;4.760;2022-12-15T09:59:40;-1.50;79.30
20672;DHT22;10495;50.922;4.760;2022-12-15T10:08:00;-1.40;79.60
20672;DHT22;10495;50.922;4.760;2022-12-15T10:10:38;-1.30;79.70
20672;DHT22;10495;50.922;4.760;2022-12-15T10:13:32;-1.30;79.90
20672;DHT22;10495;50.922;4.760;2022-12-15T10:16:07;-1.30;80.00
20672;DHT22;10495;50.922;4.760;2022-12-15T10:18:45;-1.20;80.00
20672;DHT22;10495;50.922;4.760;2022-12-15T10:21:14;-1.10;79.60
20672;DHT22;10495;50.922;4.760;2022-12-15T10:23:40;-1.10;79.60
20672;DHT22;10495;50.922;4.760;2022-12-15T10:26:25;-1.10;79.70
20672;DHT22;10495;50.922;4.760;2022-12-15T10:29:03;-1.00;79.60
20672;DHT22;10495;50.922;4.760;2022-12-15T10:34:28;-1.00;79.90
20672;DHT22;10495;50.922;4.760;2022-12-15T10:36:55;-1.00;80.10
20672;DHT22;10495;50.922;4.760;2022-12-15T10:39:21;-0.90;80.00
20672;DHT22;10495;50.922;4.760;2022-12-15T10:44:44;-0.70;79.90
20672;DHT22;10495;50.922;4.760;2022-12-15T10:47:19;-0.80;80.30
20672;DHT22;10495;50.922;4.760;2022-12-15T10:49:45;-0.70;80.10
20672;DHT22;10495;50.922;4.760;2022-12-15T10:52:18;-0.60;80.20
20672;DHT22;10495;50.922;4.760;2022-12-15T10:54:47;-0.60;80.30
20672;DHT22;10495;50.922;4.760;2022-12-15T10:57:25;-0.60;81.00
20672;DHT22;10495;50.922;4.760;2022-12-15T11:02:40;-0.40;82.20
20672;DHT22;10495;50.922;4.760;2022-12-15T11:10:30;-0.10;82.40
20672;DHT22;10495;50.922;4.760;2022-12-15T11:13:21;-0.10;82.10
20672;DHT22;10495;50.922;4.760;2022-12-15T11:15:53;-0.10;83.40
20672;DHT22;10495;50.922;4.760;2022-12-15T11:32:02;0.20;82.80
20672;DHT22;10495;50.922;4.760;2022-12-15T11:34:40;0.30;82.80
20672;DHT22;10495;50.922;4.760;2022-12-15T11:45:44;0.60;81.90
20672;DHT22;10495;50.922;4.760;2022-12-15T11:48:20;0.70;81.60
20672;DHT22;10495;50.922;4.760;2022-12-15T11:51:03;0.90;81.50
20672;DHT22;10495;50.922;4.760;2022-12-15T11:53:58;0.80;81.30
20672;DHT22;10495;50.922;4.760;2022-12-15T11:56:33;0.90;81.30
20672;DHT22;10495;50.922;4.760;2022-12-15T12:04:36;1.10;80.80
20672;DHT22;10495;50.922;4.760;2022-12-15T12:12:43;1.20;80.30
20672;DHT22;10495;50.922;4.760;2022-12-15T12:15:31;1.10;80.50
20672;DHT22;10495;50.922;4.760;2022-12-15T12:18:15;1.20;80.60
20672;DHT22;10495;50.922;4.760;2022-12-15T12:20:49;1.20;80.40
20672;DHT22;10495;50.922;4.760;2022-12-15T12:23:23;1.30;80.30
20672;DHT22;10495;50.922;4.760;2022-12-15T12:26:01;1.40;80.00
20672;DHT22;10495;50.922;4.760;2022-12-15T12:29:03;1.60;79.50
20672;DHT22;10495;50.922;4.760;2022-12-15T12:34:16;1.60;79.40
20672;DHT22;10495;50.922;4.760;2022-12-15T12:36:47;1.70;79.50
20672;DHT22;10495;50.922;4.760;2022-12-15T12:39:21;1.80;79.00
20672;DHT22;10495;50.922;4.760;2022-12-15T12:41:58;1.90;79.50
20672;DHT22;10495;50.922;4.760;2022-12-15T12:44:30;1.90;79.00
20672;DHT22;10495;50.922;4.760;2022-12-15T12:46:59;2.00;79.00
20672;DHT22;10495;50.922;4.760;2022-12-15T12:49:36;2.00;77.90
20672;DHT22;10495;50.922;4.760;2022-12-15T12:52:04;2.00;77.50
20672;DHT22;10495;50.922;4.760;2022-12-15T13:05:04;2.20;76.70
20672;DHT22;10495;50.922;4.760;2022-12-15T13:08:43;2.20;75.80
20672;DHT22;10495;50.922;4.760;2022-12-15T13:10:46;2.20;76.00
20672;DHT22;10495;50.922;4.760;2022-12-15T13:13:36;2.20;74.70
20672;DHT22;10495;50.922;4.760;2022-12-15T13:16:24;2.30;75.50
20672;DHT22;10495;50.922;4.760;2022-12-15T13:21:51;2.30;75.40
20672;DHT22;10495;50.922;4.760;2022-12-15T13:24:34;2.50;74.80
20672;DHT22;10495;50.922;4.760;2022-12-15T13:29:34;2.50;74.00
20672;DHT22;10495;50.922;4.760;2022-12-15T13:32:00;2.40;73.50
20672;DHT22;10495;50.922;4.760;2022-12-15T13:34:27;2.30;74.00
20672;DHT22;10495;50.922;4.760;2022-12-15T13:36:57;2.40;74.10
20672;DHT22;10495;50.922;4.760;2022-12-15T13:46:51;2.40;73.30
20672;DHT22;10495;50.922;4.760;2022-12-15T13:49:32;2.40;73.40
20672;DHT22;10495;50.922;4.760;2022-12-15T13:54:59;2.40;73.40
20672;DHT22;10495;50.922;4.760;2022-12-15T13:57:28;2.50;73.60
20672;DHT22;10495;50.922;4.760;2022-12-15T14:00:05;2.50;73.00
20672;DHT22;10495;50.922;4.760;2022-12-15T14:02:35;2.50;73.10
20672;DHT22;10495;50.922;4.760;2022-12-15T14:05:15;2.50;73.00
20672;DHT22;10495;50.922;4.760;2022-12-15T14:13:21;2.20;73.70
20672;DHT22;10495;50.922;4.760;2022-12-15T14:16:14;2.20;73.90
20672;DHT22;10495;50.922;4.760;2022-12-15T14:18:37;2.10;74.00
20672;DHT22;10495;50.922;4.760;2022-12-15T14:21:21;2.10;74.10
20672;DHT22;10495;50.922;4.760;2022-12-15T14:23:46;2.10;74.10
20672;DHT22;10495;50.922;4.760;2022-12-15T14:26:13;2.00;74.20
20672;DHT22;10495;50.922;4.760;2022-12-15T14:28:42;2.00;74.30
20672;DHT22;10495;50.922;4.760;2022-12-15T14:31:17;1.90;74.30
20672;DHT22;10495;50.922;4.760;2022-12-15T14:33:46;1.90;74.40
20672;DHT22;10495;50.922;4.760;2022-12-15T14:36:15;1.90;74.50
20672;DHT22;10495;50.922;4.760;2022-12-15T14:39:01;1.80;74.50
20672;DHT22;10495;50.922;4.760;2022-12-15T14:41:32;1.80;74.60
20672;DHT22;10495;50.922;4.760;2022-12-15T14:44:04;1.80;75.10
20672;DHT22;10495;50.922;4.760;2022-12-15T14:46:31;1.80;74.50
20672;DHT22;10495;50.922;4.760;2022-12-15T14:49:05;1.80;74.30
20672;DHT22;10495;50.922;4.760;2022-12-15T14:51:39;1.70;73.10
20672;DHT22;10495;50.922;4.760;2022-12-15T14:54:26;1.70;72.80
20672;DHT22;10495;50.922;4.760;2022-12-15T14:59:33;1.60;73.00
20672;DHT22;10495;50.922;4.760;2022-12-15T15:04:39;1.70;73.10
20672;DHT22;10495;50.922;4.760;2022-12-15T15:07:13;1.60;73.10
20672;DHT22;10495;50.922;4.760;2022-12-15T15:09:42;1.60;73.20
20672;DHT22;10495;50.922;4.760;2022-12-15T15:15:01;1.40;73.60
20672;DHT22;10495;50.922;4.760;2022-12-15T15:17:36;1.30;73.50
20672;DHT22;10495;50.922;4.760;2022-12-15T15:20:06;1.30;73.50
20672;DHT22;10495;50.922;4.760;2022-12-15T15:22:43;1.10;73.60
20672;DHT22;10495;50.922;4.760;2022-12-15T15:25:26;1.10;73.70
20672;DHT22;10495;50.922;4.760;2022-12-15T15:28:22;1.00;73.60
20672;DHT22;10495;50.922;4.760;2022-12-15T15:33:55;0.90;73.60
20672;DHT22;10495;50.922;4.760;2022-12-15T15:36:24;0.80;73.80
20672;DHT22;10495;50.922;4.760;2022-12-15T15:38:53;0.70;73.80
20672;DHT22;10495;50.922;4.760;2022-12-15T15:41:23;0.70;73.80
20672;DHT22;10495;50.922;4.760;2022-12-15T15:43:50;0.60;73.80
20672;DHT22;10495;50.922;4.760;2022-12-15T15:46:24;0.60;73.90
20672;DHT22;10495;50.922;4.760;2022-12-15T15:49:07;0.60;73.90
20672;DHT22;10495;50.922;4.760;2022-12-15T15:51:34;0.40;73.80
20672;DHT22;10495;50.922;4.760;2022-12-15T15:54:05;0.30;73.90
20672;DHT22;10495;50.922;4.760;2022-12-15T15:56:32;0.30;74.10
20672;DHT22;10495;50.922;4.760;2022-12-15T15:59:08;0.20;74.10
20672;DHT22;10495;50.922;4.760;2022-12-15T16:01:34;0.20;74.20
20672;DHT22;10495;50.922;4.760;2022-12-15T16:03:59;0.10;74.10
20672;DHT22;10495;50.922;4.760;2022-12-15T16:06:25;0.10;74.10
20672;DHT22;10495;50.922;4.760;2022-12-15T16:08:51;0.00;74.10
20672;DHT22;10495;50.922;4.760;2022-12-15T16:11:19;0.00;74.20
20672;DHT22;10495;50.922;4.760;2022-12-15T16:13:45;-0.10;74.80
20672;DHT22;10495;50.922;4.760;2022-12-15T16:16:18;-0.10;74.30
20672;DHT22;10495;50.922;4.760;2022-12-15T16:18:43;-0.10;74.30
20672;DHT22;10495;50.922;4.760;2022-12-15T16:21:12;-0.10;74.40
20672;DHT22;10495;50.922;4.760;2022-12-15T16:23:43;-0.20;74.90
20672;DHT22;10495;50.922;4.760;2022-12-15T16:26:14;-0.20;74.40
20672;DHT22;10495;50.922;4.760;2022-12-15T16:28:40;-0.30;74.50
20672;DHT22;10495;50.922;4.760;2022-12-15T16:31:14;-0.30;74.50
20672;DHT22;10495;50.922;4.760;2022-12-15T16:33:40;-0.30;74.50
20672;DHT22;10495;50.922;4.760;2022-12-15T16:36:12;-0.30;74.50
20672;DHT22;10495;50.922;4.760;2022-12-15T16:38:39;-0.40;74.50
20672;DHT22;10495;50.922;4.760;2022-12-15T16:41:06;-0.40;74.80
20672;DHT22;10495;50.922;4.760;2022-12-15T16:43:32;-0.50;74.70
20672;DHT22;10495;50.922;4.760;2022-12-15T16:45:58;-0.50;74.70
20672;DHT22;10495;50.922;4.760;2022-12-15T16:48:24;-0.50;74.80
20672;DHT22;10495;50.922;4.760;2022-12-15T16:50:55;-0.50;74.80
20672;DHT22;10495;50.922;4.760;2022-12-15T16:53:25;-0.60;75.00
20672;DHT22;10495;50.922;4.760;2022-12-15T16:56:00;-0.60;74.90
20672;DHT22;10495;50.922;4.760;2022-12-15T16:58:27;-0.60;75.40
20672;DHT22;10495;50.922;4.760;2022-12-15T17:00:53;-0.60;75.80
20672;DHT22;10495;50.922;4.760;2022-12-15T17:03:20;-0.70;75.20
20672;DHT22;10495;50.922;4.760;2022-12-15T17:05:58;-0.60;75.30
20672;DHT22;10495;50.922;4.760;2022-12-15T17:10:56;-0.70;75.40
20672;DHT22;10495;50.922;4.760;2022-12-15T17:13:32;-0.70;75.70
20672;DHT22;10495;50.922;4.760;2022-12-15T17:15:58;-0.70;75.80
20672;DHT22;10495;50.922;4.760;2022-12-15T17:18:24;-0.80;75.70
20672;DHT22;10495;50.922;4.760;2022-12-15T17:21:36;-0.80;75.80
20672;DHT22;10495;50.922;4.760;2022-12-15T17:23:44;-0.70;76.40
20672;DHT22;10495;50.922;4.760;2022-12-15T17:26:31;-0.90;76.40
20672;DHT22;10495;50.922;4.760;2022-12-15T17:29:10;-1.00;77.20
20672;DHT22;10495;50.922;4.760;2022-12-15T17:31:37;-1.00;77.70
20672;DHT22;10495;50.922;4.760;2022-12-15T17:34:23;-1.10;77.90
20672;DHT22;10495;50.922;4.760;2022-12-15T17:36:50;-1.10;77.70
20672;DHT22;10495;50.922;4.760;2022-12-15T17:39:18;-1.10;77.70
20672;DHT22;10495;50.922;4.760;2022-12-15T17:41:44;-1.00;77.70
20672;DHT22;10495;50.922;4.760;2022-12-15T17:44:21;-1.00;77.70
20672;DHT22;10495;50.922;4.760;2022-12-15T17:46:47;-0.90;77.60
20672;DHT22;10495;50.922;4.760;2022-12-15T17:49:13;-0.80;77.10
20672;DHT22;10495;50.922;4.760;2022-12-15T17:51:41;-0.80;77.20
20672;DHT22;10495;50.922;4.760;2022-12-15T17:54:15;-0.80;77.10
20672;DHT22;10495;50.922;4.760;2022-12-15T17:56:42;-0.70;77.20
20672;DHT22;10495;50.922;4.760;2022-12-15T17:59:18;-0.80;77.60
20672;DHT22;10495;50.922;4.760;2022-12-15T18:01:47;-0.80;78.20
20672;DHT22;10495;50.922;4.760;2022-12-15T18:04:13;-0.90;78.00
20672;DHT22;10495;50.922;4.760;2022-12-15T18:06:40;-0.90;77.80
20672;DHT22;10495;50.922;4.760;2022-12-15T18:09:14;-0.90;77.60